Time;durP1;ratioP1;P1;durP2;ratioP2;P2;SDS_P1;SDS_P2;PMS_P1;PMS_P2;Temp;Humidity;BMP_temperature;BMP_pressure;BME280_temperature;BME280_humidity;BME280_pressure;Samples;Min_cycle;Max_cycle;Signal;HPM_P1;HPM_P2
2023/05/12 13:40:37;;;;;;;2.90;1.48;;;21.60;65.90;;;;;;2557247;52;22798;-73
2023/05/12 13:43:03;;;;;;;2.90;1.60;;;21.60;67.10;;;;;;2571291;53;21462;-76
2023/05/12 13:45:30;;;;;;;2.50;1.33;;;21.50;67.20;;;;;;2573192;53;21013;-75
2023/05/12 13:47:56;;;;;;;3.83;1.83;;;21.50;67.10;;;;;;2355252;54;20965;-78
2023/05/12 13:50:23;;;;;;;3.00;1.60;;;21.60;67.10;;;;;;2354738;54;21069;-75
2023/05/12 13:52:49;;;;;;;3.35;1.60;;;21.60;66.80;;;;;;2604191;53;20948;-74
2023/05/12 13:55:18;;;;;;;2.92;1.70;;;21.50;66.60;;;;;;2604336;53;20895;-75
2023/05/12 13:57:46;;;;;;;2.63;1.40;;;21.50;66.40;;;;;;2317148;53;20940;-74
2023/05/12 14:00:16;;;;;;;2.33;1.17;;;21.50;66.40;;;;;;2583660;52;20946;-77
2023/05/12 14:02:42;;;;;;;2.40;1.30;;;21.50;66.20;;;;;;2583467;52;21061;-74
2023/05/12 14:05:09;;;;;;;2.10;1.20;;;21.50;66.00;;;;;;2582341;52;21382;-75
2023/05/12 14:07:35;;;;;;;2.83;1.20;;;21.40;65.70;;;;;;2343600;53;21463;-74
2023/05/12 14:10:01;;;;;;;2.87;1.40;;;21.40;65.60;;;;;;2353296;53;20963;-75
2023/05/12 14:12:28;;;;;;;2.58;1.30;;;21.40;65.50;;;;;;2588525;53;20972;-73
2023/05/12 14:14:54;;;;;;;2.30;1.17;;;21.30;65.60;;;;;;2342034;53;20975;-76
2023/05/12 14:17:21;;;;;;;2.50;1.25;;;21.30;65.80;;;;;;2342280;53;21039;-74
2023/05/12 14:19:47;;;;;;;2.40;1.10;;;21.30;65.90;;;;;;2587397;53;20944;-74
2023/05/12 14:22:14;;;;;;;2.15;1.02;;;21.30;66.00;;;;;;2588075;53;20980;-73
2023/05/12 14:24:48;;;;;;;2.22;1.25;;;21.30;66.30;;;;;;2554213;53;20976;-75
2023/05/12 14:27:14;;;;;;;2.08;1.17;;;21.30;66.50;;;;;;2315299;53;20968;-74
2023/05/12 14:29:41;;;;;;;3.10;1.30;;;21.30;66.60;;;;;;2550365;53;21010;-75
2023/05/12 14:32:10;;;;;;;2.67;1.27;;;21.30;66.50;;;;;;2310599;53;20976;-75
2023/05/12 14:34:39;;;;;;;3.55;1.27;;;21.30;66.60;;;;;;2336220;53;21509;-74
2023/05/12 14:37:05;;;;;;;3.00;1.30;;;21.40;66.90;;;;;;2585818;53;20924;-74
2023/05/12 14:39:32;;;;;;;2.10;0.95;;;21.40;67.00;;;;;;2342128;53;20940;-75
2023/05/12 14:41:58;;;;;;;2.33;1.17;;;21.40;66.90;;;;;;2342658;53;21975;-74
2023/05/12 14:44:25;;;;;;;2.25;1.15;;;21.50;66.90;;;;;;2588989;53;21111;-73
2023/05/12 14:46:51;;;;;;;2.53;1.23;;;21.50;66.80;;;;;;2342516;53;20920;-74
2023/05/12 14:49:20;;;;;;;2.45;1.37;;;21.60;66.70;;;;;;2589013;53;20936;-78
2023/05/12 14:51:53;;;;;;;2.37;1.15;;;21.60;66.30;;;;;;2599369;52;21752;-75
2023/05/12 14:54:19;;;;;;;3.87;1.40;;;21.60;66.20;;;;;;2615512;52;20976;-77
2023/05/12 14:57:00;;;;;;;2.37;1.17;;;21.70;66.20;;;;;;2363924;53;20995;-77
2023/05/12 14:59:30;;;;;;;1.95;0.88;;;21.70;66.30;;;;;;2364509;53;21976;-76
2023/05/12 15:01:56;;;;;;;2.37;1.00;;;21.70;66.20;;;;;;2614803;52;20977;-76
2023/05/12 15:04:25;;;;;;;2.35;1.17;;;21.80;66.30;;;;;;2363543;53;21409;-77
2023/05/12 15:06:51;;;;;;;2.40;0.90;;;21.80;66.20;;;;;;2364246;53;21016;-76
2023/05/12 15:09:17;;;;;;;1.75;0.70;;;21.80;66.20;;;;;;2616257;52;20920;-74
2023/05/12 15:11:44;;;;;;;2.30;0.80;;;21.80;66.30;;;;;;2616670;52;20931;-75
2023/05/12 15:14:10;;;;;;;1.50;0.70;;;21.80;66.10;;;;;;2616663;52;20925;-74
2023/05/12 15:16:37;;;;;;;1.80;0.68;;;21.90;66.10;;;;;;2365395;53;20952;-74
2023/05/12 15:19:03;;;;;;;1.73;0.80;;;21.90;65.90;;;;;;2364547;53;21512;-74
2023/05/12 15:21:29;;;;;;;1.12;0.57;;;21.90;65.70;;;;;;2616106;52;21462;-75
2023/05/12 15:23:56;;;;;;;1.55;0.70;;;21.90;65.50;;;;;;2616582;52;21007;-74
2023/05/12 15:26:23;;;;;;;1.65;0.70;;;21.90;65.20;;;;;;2615242;52;20963;-74
2023/05/12 15:29:03;;;;;;;1.20;0.50;;;21.90;65.00;;;;;;2365043;53;21525;-75
2023/05/12 15:31:29;;;;;;;1.60;0.60;;;21.80;64.40;;;;;;2616208;52;20924;-75
2023/05/12 15:33:59;;;;;;;1.25;0.70;;;21.80;64.60;;;;;;2367246;53;20913;-77
2023/05/12 15:36:25;;;;;;;1.50;0.75;;;21.80;64.60;;;;;;2364814;53;20975;-74
2023/05/12 15:38:51;;;;;;;1.80;0.80;;;21.80;64.80;;;;;;2614590;52;20949;-74
2023/05/12 15:41:17;;;;;;;1.95;0.80;;;21.70;64.90;;;;;;2615634;52;21350;-73
2023/05/12 15:43:45;;;;;;;2.12;1.10;;;21.70;65.20;;;;;;2616282;52;20930;-77
2023/05/12 15:46:13;;;;;;;1.73;0.80;;;21.70;65.40;;;;;;2364907;53;20963;-73
2023/05/12 15:48:40;;;;;;;1.45;0.60;;;21.80;65.50;;;;;;2617105;52;21834;-76
2023/05/12 15:51:06;;;;;;;1.73;0.70;;;21.70;65.50;;;;;;2365575;53;21007;-73
2023/05/12 15:53:33;;;;;;;0.98;0.60;;;21.70;65.50;;;;;;2616237;52;20955;-73
2023/05/12 15:56:02;;;;;;;1.52;0.62;;;21.80;65.60;;;;;;2615859;52;21007;-73
2023/05/12 15:58:28;;;;;;;1.33;0.55;;;21.80;65.50;;;;;;2616327;52;20964;-74
2023/05/12 16:00:55;;;;;;;1.45;0.60;;;21.80;65.70;;;;;;2615640;52;20924;-73
2023/05/12 16:03:22;;;;;;;1.52;0.70;;;21.80;65.60;;;;;;2364939;53;20936;-77
2023/05/12 16:05:51;;;;;;;1.08;0.50;;;21.80;65.60;;;;;;2343529;54;20912;-76
2023/05/12 16:08:17;;;;;;;0.90;0.50;;;21.80;65.30;;;;;;2616430;52;20944;-73
2023/05/12 16:10:44;;;;;;;1.40;0.70;;;21.80;65.40;;;;;;2616977;52;20964;-74
2023/05/12 16:13:10;;;;;;;1.48;0.70;;;21.80;65.40;;;;;;2616553;52;20983;-76
2023/05/12 16:15:37;;;;;;;1.23;0.60;;;21.80;65.40;;;;;;2364858;53;21015;-74
2023/05/12 16:18:03;;;;;;;1.15;0.65;;;21.80;65.40;;;;;;2616118;52;20940;-76
2023/05/12 16:20:29;;;;;;;1.23;0.60;;;21.80;65.50;;;;;;2365137;53;20916;-73
2023/05/12 16:22:57;;;;;;;1.37;0.62;;;21.70;65.40;;;;;;2614628;52;20991;-73
2023/05/12 16:25:25;;;;;;;1.30;0.50;;;21.70;65.40;;;;;;2616250;52;20979;-75
2023/05/12 16:27:52;;;;;;;1.12;0.47;;;21.70;65.40;;;;;;2616657;52;20924;-74
2023/05/12 16:30:18;;;;;;;1.25;0.70;;;21.70;65.50;;;;;;2365733;53;21469;-73
2023/05/12 16:32:46;;;;;;;1.15;0.43;;;21.70;65.40;;;;;;2368649;53;21588;-73
2023/05/12 16:35:12;;;;;;;1.35;0.60;;;21.70;65.30;;;;;;2365980;53;21472;-75
2023/05/12 16:37:41;;;;;;;0.98;0.40;;;21.70;65.30;;;;;;2615043;52;21013;-75
2023/05/12 16:40:08;;;;;;;3.67;0.68;;;21.70;65.40;;;;;;2617066;52;21030;-74
2023/05/12 16:42:35;;;;;;;1.60;0.70;;;21.60;65.20;;;;;;2616727;52;21086;-75
2023/05/12 16:45:05;;;;;;;2.58;0.70;;;21.60;65.80;;;;;;2613882;52;20940;-75
2023/05/12 16:47:32;;;;;;;1.23;0.52;;;21.60;65.00;;;;;;2601305;52;20918;-75
2023/05/12 16:49:58;;;;;;;1.05;0.60;;;21.50;64.80;;;;;;2604777;52;20888;-77
2023/05/12 16:52:25;;;;;;;1.30;0.60;;;21.50;64.70;;;;;;2366602;53;20908;-74
2023/05/12 16:54:52;;;;;;;1.00;0.50;;;21.40;64.40;;;;;;2366283;53;21538;-73
2023/05/12 16:57:20;;;;;;;1.40;0.60;;;21.40;64.30;;;;;;2615793;52;20917;-78
2023/05/12 16:59:49;;;;;;;1.15;0.50;;;21.30;64.40;;;;;;2611390;52;21008;-73
2023/05/12 17:02:15;;;;;;;2.05;0.68;;;21.30;64.60;;;;;;2606451;52;21560;-75
2023/05/12 17:04:42;;;;;;;1.10;0.55;;;21.20;64.70;;;;;;2370512;54;20968;-73
2023/05/12 17:07:13;;;;;;;1.42;0.60;;;21.20;64.70;;;;;;2371432;53;20940;-76
2023/05/12 17:09:39;;;;;;;0.80;0.50;;;21.10;64.80;;;;;;2623342;52;21004;-74
2023/05/12 17:12:06;;;;;;;2.28;0.57;;;21.10;65.20;;;;;;2371857;54;20917;-74
2023/05/12 17:14:33;;;;;;;1.92;0.60;;;21.00;65.20;;;;;;2370493;54;20996;-75
2023/05/12 17:17:00;;;;;;;1.65;0.65;;;21.00;65.40;;;;;;2593766;52;20917;-78
2023/05/12 17:19:26;;;;;;;1.40;0.50;;;21.00;65.50;;;;;;2623786;52;21044;-74
2023/05/12 17:21:54;;;;;;;1.80;0.60;;;21.00;65.60;;;;;;2369155;54;21740;-74
2023/05/12 17:24:21;;;;;;;1.23;0.68;;;21.00;65.60;;;;;;2588415;53;20962;-73
2023/05/12 17:26:51;;;;;;;1.83;0.62;;;21.00;65.60;;;;;;2358802;53;20929;-73
2023/05/12 17:29:18;;;;;;;1.50;0.60;;;21.00;65.40;;;;;;2622171;52;20921;-74
2023/05/12 17:31:45;;;;;;;1.00;0.50;;;20.90;65.60;;;;;;2623079;52;21398;-74
2023/05/12 17:34:13;;;;;;;2.03;0.82;;;21.00;65.60;;;;;;2370901;53;20937;-73
2023/05/12 17:36:39;;;;;;;1.27;0.52;;;20.90;65.50;;;;;;2594951;52;21680;-77
2023/05/12 17:39:06;;;;;;;1.48;0.62;;;20.90;65.60;;;;;;2371777;54;20925;-74
2023/05/12 17:41:35;;;;;;;1.40;0.60;;;20.90;65.70;;;;;;2371181;54;20953;-74
2023/05/12 17:44:05;;;;;;;1.55;0.80;;;20.90;65.70;;;;;;2370526;54;20959;-76
2023/05/12 17:46:35;;;;;;;2.12;0.85;;;20.90;65.90;;;;;;2623520;52;20984;-75
2023/05/12 17:49:01;;;;;;;1.80;0.90;;;20.90;65.70;;;;;;2623242;52;21801;-77
2023/05/12 17:51:29;;;;;;;2.10;1.00;;;20.80;65.90;;;;;;2368334;53;21608;-74
2023/05/12 17:53:56;;;;;;;2.30;1.20;;;20.80;65.90;;;;;;2601932;52;20910;-74
2023/05/12 17:56:23;;;;;;;2.70;1.45;;;20.80;65.80;;;;;;2351880;53;20937;-74
2023/05/12 17:58:49;;;;;;;3.37;1.58;;;20.80;65.80;;;;;;2371147;54;20996;-74
2023/05/12 18:01:17;;;;;;;2.75;1.30;;;20.80;65.80;;;;;;2619524;52;20972;-77
2023/05/12 18:03:44;;;;;;;3.22;1.92;;;20.70;65.80;;;;;;2351522;53;20928;-74
2023/05/12 18:06:11;;;;;;;2.72;1.60;;;20.70;65.80;;;;;;2622207;52;20937;-75
2023/05/12 18:08:40;;;;;;;3.28;1.75;;;20.70;65.90;;;;;;2624173;52;20913;-75
2023/05/12 18:11:08;;;;;;;3.70;1.60;;;20.70;66.00;;;;;;2605053;52;20917;-74
2023/05/12 18:13:52;;;;;;;2.97;1.52;;;20.70;66.00;;;;;;2363376;53;20996;-74
2023/05/12 18:16:22;;;;;;;2.28;1.33;;;20.70;66.00;;;;;;2600741;52;21478;-74
2023/05/12 18:18:54;;;;;;;2.50;1.30;;;20.60;65.80;;;;;;2623207;52;20976;-74
2023/05/12 18:21:21;;;;;;;2.80;1.60;;;20.70;66.10;;;;;;2622651;52;21000;-75
2023/05/12 18:23:50;;;;;;;3.55;1.48;;;20.60;66.00;;;;;;2371710;54;21329;-75
2023/05/12 18:26:17;;;;;;;2.42;1.17;;;20.60;66.10;;;;;;2625043;52;21003;-75
2023/05/12 18:28:45;;;;;;;4.15;1.50;;;20.60;66.20;;;;;;2624782;52;20917;-74
2023/05/12 18:32:00;;;;;;;3.00;1.65;;;20.60;66.30;;;;;;2624906;52;20984;-74
2023/05/12 18:34:27;;;;;;;3.08;1.70;;;20.60;65.60;;;;;;2353114;53;20932;-74
2023/05/12 18:36:56;;;;;;;2.78;1.60;;;20.50;66.30;;;;;;2370772;53;21453;-74
2023/05/12 18:39:23;;;;;;;2.95;1.55;;;20.50;66.30;;;;;;2624787;52;21004;-73
2023/05/12 18:41:50;;;;;;;3.12;2.03;;;20.50;66.40;;;;;;2594790;52;21016;-74
2023/05/12 18:44:16;;;;;;;4.25;1.80;;;20.40;66.30;;;;;;2624854;52;20908;-74
2023/05/12 18:46:43;;;;;;;3.25;1.70;;;20.40;66.30;;;;;;2622866;52;21696;-74
2023/05/12 18:49:12;;;;;;;3.08;1.73;;;20.40;66.30;;;;;;2371803;53;21043;-73
2023/05/12 18:51:39;;;;;;;2.97;1.60;;;20.40;66.40;;;;;;2356300;53;21009;-74
2023/05/12 18:54:08;;;;;;;2.62;1.60;;;20.40;66.40;;;;;;2368209;53;20951;-73
2023/05/12 18:56:46;;;;;;;2.75;1.50;;;20.30;66.30;;;;;;2624623;52;20932;-74
2023/05/12 18:59:15;;;;;;;2.50;1.40;;;20.30;66.50;;;;;;2623474;52;20925;-74
2023/05/12 19:01:41;;;;;;;2.78;1.58;;;20.30;66.60;;;;;;2623967;52;21617;-74
2023/05/12 19:04:08;;;;;;;2.80;1.33;;;20.30;66.60;;;;;;2623620;52;21473;-75
2023/05/12 19:06:34;;;;;;;3.53;1.52;;;20.30;66.70;;;;;;2373143;54;20929;-74
2023/05/12 19:09:03;;;;;;;2.97;1.45;;;20.20;66.70;;;;;;2596531;52;20980;-76
2023/05/12 19:11:30;;;;;;;2.50;1.40;;;20.30;66.80;;;;;;2622834;52;21430;-75
2023/05/12 19:13:56;;;;;;;3.03;1.60;;;20.20;66.70;;;;;;2624564;52;20957;-74
2023/05/12 19:16:22;;;;;;;2.65;1.45;;;20.20;66.70;;;;;;2371519;54;20988;-74
2023/05/12 19:18:49;;;;;;;3.05;1.42;;;20.20;66.70;;;;;;2369546;54;21469;-74
2023/05/12 19:21:24;;;;;;;2.87;1.48;;;20.20;66.80;;;;;;2371447;54;20940;-74
2023/05/12 19:23:50;;;;;;;3.05;1.73;;;20.20;66.50;;;;;;2623956;52;21068;-73
2023/05/12 19:26:17;;;;;;;2.17;1.23;;;20.10;66.80;;;;;;2596304;52;20957;-76
2023/05/12 19:28:44;;;;;;;3.00;1.33;;;20.10;66.90;;;;;;2371264;54;21015;-74
2023/05/12 19:31:11;;;;;;;2.80;1.45;;;20.10;67.60;;;;;;2624223;52;21044;-74
2023/05/12 19:33:37;;;;;;;2.47;1.40;;;20.10;66.90;;;;;;2624252;52;21354;-76
2023/05/12 19:36:04;;;;;;;2.78;1.62;;;20.10;66.90;;;;;;2370754;54;21413;-74
2023/05/12 19:38:30;;;;;;;3.55;1.58;;;20.10;66.90;;;;;;2624149;52;20893;-74
2023/05/12 19:40:57;;;;;;;2.97;1.80;;;20.00;66.90;;;;;;2624245;52;21493;-76
2023/05/12 19:43:23;;;;;;;2.80;1.42;;;20.00;66.90;;;;;;2372189;53;22044;-75
2023/05/12 19:45:49;;;;;;;3.70;1.67;;;20.00;66.90;;;;;;2623612;52;21060;-76
2023/05/12 19:48:22;;;;;;;3.37;1.62;;;19.90;66.80;;;;;;2625264;52;21027;-75
2023/05/12 19:51:19;;;;;;;2.75;1.30;;;19.90;66.70;;;;;;2623507;52;21456;-75
2023/05/12 19:53:45;;;;;;;2.17;1.02;;;19.90;66.20;;;;;;2623900;52;20944;-73
2023/05/12 19:56:12;;;;;;;2.75;1.20;;;19.90;67.50;;;;;;2624778;52;20952;-74
2023/05/12 19:58:38;;;;;;;2.40;1.00;;;19.80;66.70;;;;;;2623698;52;20980;-74
2023/05/12 20:01:05;;;;;;;2.42;1.15;;;19.80;66.70;;;;;;2624381;52;20917;-74
2023/05/12 20:03:32;;;;;;;2.12;0.90;;;19.70;66.50;;;;;;2623841;52;21445;-74
2023/05/12 20:05:59;;;;;;;1.80;0.80;;;19.70;66.50;;;;;;2371314;53;20984;-74
2023/05/12 20:08:25;;;;;;;2.80;1.12;;;19.70;66.50;;;;;;2371905;53;20937;-75
2023/05/12 20:10:52;;;;;;;2.03;1.00;;;19.60;66.40;;;;;;2370902;54;20944;-76
2023/05/12 20:13:18;;;;;;;2.35;1.10;;;19.60;66.40;;;;;;2624395;52;20956;-75
2023/05/12 20:15:44;;;;;;;2.08;1.08;;;19.50;66.30;;;;;;2624047;52;21012;-74
2023/05/12 20:18:12;;;;;;;1.87;0.90;;;19.50;66.40;;;;;;2624146;52;21055;-74
2023/05/12 20:20:38;;;;;;;2.12;1.08;;;19.50;66.40;;;;;;2371102;53;20972;-74
2023/05/12 20:23:05;;;;;;;2.10;1.02;;;19.50;66.40;;;;;;2622741;52;21016;-74
2023/05/12 20:25:34;;;;;;;2.22;1.10;;;19.40;66.40;;;;;;2371196;54;20926;-74
2023/05/12 20:28:02;;;;;;;4.72;1.27;;;19.40;66.30;;;;;;2623051;52;20945;-75
2023/05/12 20:30:29;;;;;;;2.30;1.20;;;19.40;66.60;;;;;;2623699;52;20917;-74
2023/05/12 20:32:56;;;;;;;2.08;1.08;;;19.30;66.40;;;;;;2370806;54;21047;-74
2023/05/12 20:35:22;;;;;;;1.65;0.90;;;19.30;66.40;;;;;;2623671;52;20953;-74
2023/05/12 20:37:49;;;;;;;2.00;1.00;;;19.30;66.40;;;;;;2612360;52;21052;-73
2023/05/12 20:40:31;;;;;;;2.08;1.00;;;19.20;66.30;;;;;;2605528;52;21357;-74
2023/05/12 20:42:57;;;;;;;1.65;0.82;;;19.20;65.80;;;;;;2370917;53;21048;-73
2023/05/12 20:45:27;;;;;;;1.92;1.00;;;19.20;66.40;;;;;;2623845;52;20920;-74
2023/05/12 20:47:56;;;;;;;2.58;0.93;;;19.20;66.40;;;;;;2623908;52;20992;-74
2023/05/12 20:50:23;;;;;;;1.83;1.00;;;19.10;66.30;;;;;;2624030;52;20928;-73
2023/05/12 20:52:54;;;;;;;2.10;1.00;;;19.10;66.40;;;;;;2623480;52;20968;-74
2023/05/12 20:55:22;;;;;;;2.53;1.15;;;19.00;66.20;;;;;;2370815;54;20957;-73
2023/05/12 20:57:48;;;;;;;2.40;1.00;;;19.00;66.30;;;;;;2623854;52;21616;-73
2023/05/12 21:00:15;;;;;;;2.72;0.90;;;19.00;66.30;;;;;;2624620;52;20933;-72
2023/05/12 21:02:41;;;;;;;2.20;0.70;;;19.00;66.30;;;;;;2371309;53;20996;-74
2023/05/12 21:05:10;;;;;;;1.60;0.88;;;18.90;66.20;;;;;;2350536;53;20909;-74
2023/05/12 21:07:38;;;;;;;1.55;0.80;;;18.90;66.30;;;;;;2371268;53;20929;-76
2023/05/12 21:10:04;;;;;;;2.15;1.05;;;18.90;66.30;;;;;;2623969;52;20928;-73
2023/05/12 21:12:31;;;;;;;1.75;0.88;;;18.80;66.10;;;;;;2623146;52;20928;-73
2023/05/12 21:14:57;;;;;;;4.10;1.23;;;18.80;66.20;;;;;;2370363;53;21027;-73
2023/05/12 21:17:24;;;;;;;1.83;0.90;;;18.70;66.10;;;;;;2371663;54;21382;-73
2023/05/12 21:19:53;;;;;;;3.53;1.37;;;18.70;66.80;;;;;;2369380;53;21004;-73
2023/05/12 21:22:28;;;;;;;3.75;1.73;;;18.70;66.10;;;;;;2623770;52;21726;-73
2023/05/12 21:24:55;;;;;;;3.10;1.65;;;18.60;65.70;;;;;;2370329;54;21361;-76
2023/05/12 21:27:21;;;;;;;3.90;1.70;;;18.50;66.00;;;;;;2370859;54;20924;-74
2023/05/12 21:29:47;;;;;;;3.47;1.77;;;18.50;66.00;;;;;;2370196;54;20973;-74
2023/05/12 21:32:15;;;;;;;2.92;1.42;;;18.50;66.10;;;;;;2371090;53;21095;-72
2023/05/12 21:34:44;;;;;;;2.35;1.25;;;18.40;66.10;;;;;;2371140;54;20970;-74
2023/05/12 21:37:12;;;;;;;2.20;1.15;;;18.40;66.10;;;;;;2370557;53;20973;-73
2023/05/12 21:39:38;;;;;;;2.00;1.05;;;18.40;66.10;;;;;;2370820;54;21417;-73
2023/05/12 21:42:05;;;;;;;2.40;1.30;;;18.30;66.00;;;;;;2370993;54;20976;-73
2023/05/12 21:44:34;;;;;;;2.20;1.10;;;18.30;66.00;;;;;;2623605;52;20920;-74
2023/05/12 21:47:03;;;;;;;2.17;1.15;;;18.20;66.00;;;;;;2371528;54;20901;-74
2023/05/12 21:49:30;;;;;;;2.75;1.30;;;18.20;66.00;;;;;;2371396;53;20906;-76
2023/05/12 21:52:02;;;;;;;2.50;1.30;;;18.20;66.10;;;;;;2623348;52;20920;-73
2023/05/12 21:54:31;;;;;;;2.25;1.27;;;18.10;66.00;;;;;;2370971;54;20944;-74
2023/05/12 21:56:59;;;;;;;3.20;1.48;;;18.10;66.00;;;;;;2370636;54;21579;-74
2023/05/12 21:59:26;;;;;;;2.42;1.25;;;18.00;66.80;;;;;;2370966;53;21016;-73
2023/05/12 22:01:52;;;;;;;2.85;1.50;;;18.00;66.10;;;;;;2623220;52;21827;-72
2023/05/12 22:04:18;;;;;;;4.90;1.30;;;18.00;66.10;;;;;;2624605;52;20956;-73
2023/05/12 22:06:45;;;;;;;2.05;1.20;;;17.90;66.10;;;;;;2623874;52;20953;-73
2023/05/12 22:09:11;;;;;;;2.50;1.20;;;17.90;66.10;;;;;;2371032;54;21094;-73
2023/05/12 22:11:38;;;;;;;5.35;1.37;;;17.90;66.10;;;;;;2623723;52;20908;-73
2023/05/12 22:14:05;;;;;;;2.90;1.35;;;17.80;66.00;;;;;;2370998;54;20937;-73
2023/05/12 22:16:31;;;;;;;2.72;1.37;;;17.80;65.90;;;;;;2624404;52;20933;-74
2023/05/12 22:19:04;;;;;;;;;;;17.70;65.80;;;;;;2375014;54;20983;-72
2023/05/12 22:21:30;;;;;;;2.33;1.00;;;17.70;65.00;;;;;;2372240;54;20121;-73
2023/05/12 22:23:57;;;;;;;3.03;1.10;;;17.70;65.90;;;;;;2623716;52;20925;-73
2023/05/12 22:26:23;;;;;;;1.92;1.02;;;17.60;65.80;;;;;;2371292;53;20921;-75
2023/05/12 22:28:49;;;;;;;2.42;1.20;;;17.60;65.80;;;;;;2371323;54;20988;-74
2023/05/12 22:31:15;;;;;;;2.70;1.33;;;17.50;65.70;;;;;;2623760;52;20916;-76
2023/05/12 22:33:44;;;;;;;2.67;1.50;;;17.60;65.90;;;;;;2371086;54;21636;-75
2023/05/12 22:36:10;;;;;;;2.67;1.37;;;17.40;65.80;;;;;;2623834;52;20901;-76
2023/05/12 22:38:37;;;;;;;3.00;1.42;;;17.40;65.90;;;;;;2622111;52;20904;-72
2023/05/12 22:41:03;;;;;;;2.62;1.35;;;17.30;65.90;;;;;;2372219;54;21008;-75
2023/05/12 22:43:29;;;;;;;2.55;1.37;;;17.20;65.90;;;;;;2371114;53;20984;-75
2023/05/12 22:45:56;;;;;;;3.37;1.30;;;17.20;65.90;;;;;;2351369;53;20945;-75
2023/05/12 22:48:22;;;;;;;2.20;1.10;;;17.20;65.90;;;;;;2608393;52;21484;-77
2023/05/12 22:50:52;;;;;;;2.78;1.30;;;17.20;66.00;;;;;;2624089;52;21008;-74
2023/05/12 22:53:18;;;;;;;3.20;1.30;;;17.10;65.90;;;;;;2370730;54;20989;-74
2023/05/12 22:56:02;;;;;;;3.40;1.50;;;17.10;65.90;;;;;;2624131;52;21822;-75
2023/05/12 22:58:29;;;;;;;2.10;1.15;;;17.10;65.40;;;;;;2371007;54;21016;-73
2023/05/12 23:00:56;;;;;;;2.87;1.40;;;17.00;65.90;;;;;;2351200;53;21668;-73
2023/05/12 23:03:23;;;;;;;3.28;1.55;;;17.00;65.90;;;;;;2624280;52;20889;-73
2023/05/12 23:05:49;;;;;;;3.40;1.48;;;17.00;66.00;;;;;;2623437;52;20994;-73
2023/05/12 23:08:15;;;;;;;2.70;1.48;;;16.90;66.00;;;;;;2371065;53;21862;-75
2023/05/12 23:10:42;;;;;;;2.60;1.50;;;16.90;66.10;;;;;;2371088;54;20993;-74
2023/05/12 23:13:09;;;;;;;2.70;1.50;;;16.90;66.10;;;;;;2623940;52;20901;-77
2023/05/12 23:15:35;;;;;;;2.70;1.55;;;16.80;66.10;;;;;;2596055;52;21000;-76
2023/05/12 23:18:02;;;;;;;2.55;1.42;;;16.70;66.10;;;;;;2589685;53;21048;-76
2023/05/12 23:20:29;;;;;;;2.90;1.50;;;16.80;66.20;;;;;;2589585;53;21542;-75
2023/05/12 23:22:55;;;;;;;2.45;1.30;;;16.70;66.20;;;;;;2590885;52;20926;-74
2023/05/12 23:25:21;;;;;;;2.60;1.40;;;16.70;66.20;;;;;;2615969;52;21759;-74
2023/05/12 23:27:49;;;;;;;2.50;1.40;;;16.70;66.30;;;;;;2366396;53;21365;-73
2023/05/12 23:30:15;;;;;;;2.35;1.30;;;16.70;66.30;;;;;;2617570;52;20979;-74
2023/05/12 23:32:41;;;;;;;2.70;1.70;;;16.70;66.40;;;;;;2366594;53;20900;-73
2023/05/12 23:35:08;;;;;;;2.62;1.50;;;16.60;66.30;;;;;;2618449;52;21107;-73
2023/05/12 23:37:35;;;;;;;2.62;1.45;;;16.60;66.40;;;;;;2366845;53;20992;-74
2023/05/12 23:40:01;;;;;;;2.53;1.25;;;16.60;66.50;;;;;;2616700;52;20999;-73
2023/05/12 23:42:29;;;;;;;2.35;1.20;;;16.60;66.50;;;;;;2618146;52;20988;-72
2023/05/12 23:44:55;;;;;;;2.67;1.40;;;16.60;66.60;;;;;;2368496;53;20921;-75
2023/05/12 23:47:21;;;;;;;2.90;1.58;;;16.60;66.60;;;;;;2618023;52;21043;-77
2023/05/12 23:49:47;;;;;;;3.22;1.30;;;16.60;66.60;;;;;;2617501;52;21011;-76
2023/05/12 23:52:14;;;;;;;2.60;1.50;;;16.60;66.60;;;;;;2366199;53;20975;-77
2023/05/12 23:54:40;;;;;;;3.72;1.60;;;16.50;66.50;;;;;;2366515;53;20952;-74
2023/05/12 23:57:07;;;;;;;2.62;1.50;;;16.50;66.40;;;;;;2366197;53;20959;-75
2023/05/12 23:59:34;;;;;;;2.80;1.48;;;16.50;66.50;;;;;;2366317;53;21038;-74
